createdAt,value
2018-09-14T00:03:10.061Z,18.00
2018-09-14T00:05:38.775Z,18.00
2018-09-14T00:08:07.250Z,18.00
2018-09-14T00:10:35.773Z,18.00
2018-09-14T00:13:04.268Z,18.10
2018-09-14T00:15:32.735Z,18.00
2018-09-14T00:18:01.261Z,18.00
2018-09-14T00:20:29.774Z,18.10
2018-09-14T00:22:58.273Z,18.20
2018-09-14T00:25:26.910Z,18.20
2018-09-14T00:27:55.425Z,18.20
2018-09-14T00:30:24.064Z,18.20
2018-09-14T00:32:52.681Z,18.30
2018-09-14T00:35:21.201Z,18.40
2018-09-14T00:37:49.684Z,18.50
2018-09-14T00:40:18.814Z,18.40
2018-09-14T00:42:47.299Z,18.50
2018-09-14T00:50:09.658Z,18.50
2018-09-14T00:52:38.153Z,18.60
2018-09-14T00:55:06.693Z,18.60
2018-09-14T00:57:35.206Z,18.50
2018-09-14T01:00:04.953Z,18.50
2018-09-14T01:02:33.430Z,18.60
2018-09-14T01:05:01.938Z,18.50
2018-09-14T01:07:30.406Z,18.60
2018-09-14T01:09:58.958Z,18.50
2018-09-14T01:12:27.825Z,18.60
2018-09-14T01:14:56.316Z,18.50
2018-09-14T01:17:24.823Z,18.50
2018-09-14T01:19:53.337Z,18.50
2018-09-14T01:22:21.836Z,18.40
2018-09-14T01:24:50.313Z,18.40
2018-09-14T01:27:18.817Z,18.30
2018-09-14T01:29:47.305Z,18.30
2018-09-14T01:32:17.453Z,18.30
2018-09-14T01:34:46.510Z,18.30
2018-09-14T01:43:15.230Z,18.20
2018-09-14T01:45:43.698Z,18.10
2018-09-14T01:48:12.237Z,18.10
2018-09-14T01:50:41.070Z,18.00
2018-09-14T01:53:16.324Z,17.90
2018-09-14T01:55:44.837Z,18.00
2018-09-14T01:58:13.318Z,17.90
2018-09-14T02:00:42.637Z,17.80
2018-09-14T02:03:11.169Z,17.80
2018-09-14T02:05:39.641Z,17.70
2018-09-14T02:08:09.883Z,17.60
2018-09-14T02:10:38.963Z,17.60
2018-09-14T02:13:07.437Z,17.50
2018-09-14T02:15:35.934Z,17.50
2018-09-14T02:18:04.450Z,17.50
2018-09-14T02:20:32.946Z,17.50
2018-09-14T02:23:01.426Z,17.50
2018-09-14T02:25:30.846Z,17.50
2018-09-14T02:27:59.346Z,17.50
2018-09-14T02:30:27.885Z,17.50
2018-09-14T02:32:56.492Z,17.40
2018-09-14T02:35:24.966Z,17.20
2018-09-14T02:37:53.435Z,17.10
2018-09-14T02:40:21.958Z,17.00
2018-09-14T02:42:50.454Z,16.90
2018-09-14T02:45:18.934Z,16.80
2018-09-14T02:47:47.481Z,16.80
2018-09-14T02:50:18.646Z,16.70
2018-09-14T02:52:47.138Z,16.70
2018-09-14T03:00:13.162Z,16.60
2018-09-14T03:02:42.170Z,16.50
2018-09-14T03:05:11.762Z,16.50
2018-09-14T03:07:40.354Z,16.50
2018-09-14T03:10:09.201Z,16.50
2018-09-14T03:12:37.748Z,16.50
2018-09-14T03:15:06.392Z,16.60
2018-09-14T03:17:35.965Z,16.60
2018-09-14T03:20:04.554Z,16.70
2018-09-14T03:22:33.713Z,16.70
2018-09-14T03:25:02.218Z,16.70
2018-09-14T03:27:30.730Z,16.70
2018-09-14T03:29:59.234Z,16.70
2018-09-14T03:32:27.713Z,16.80
2018-09-14T03:34:56.196Z,16.80
2018-09-14T03:37:24.696Z,16.80
2018-09-14T03:39:53.164Z,16.80
2018-09-14T03:42:22.078Z,16.80
2018-09-14T03:44:50.869Z,16.80
2018-09-14T03:47:19.437Z,16.70
2018-09-14T03:49:47.926Z,16.50
2018-09-14T03:52:17.519Z,16.40
2018-09-14T03:54:45.989Z,16.30
2018-09-14T04:02:08.777Z,16.20
2018-09-14T04:04:37.868Z,16.10
2018-09-14T04:07:06.498Z,16.10
2018-09-14T04:09:35.087Z,16.20
2018-09-14T04:12:03.563Z,16.20
2018-09-14T04:14:32.034Z,16.20
2018-09-14T04:17:00.532Z,16.20
2018-09-14T04:19:29.007Z,16.20
2018-09-14T04:21:57.465Z,16.20
2018-09-14T04:24:26.515Z,16.30
2018-09-14T04:26:54.977Z,16.30
2018-09-14T04:29:23.482Z,16.30
2018-09-14T04:31:51.997Z,16.30
2018-09-14T04:34:21.450Z,16.40
2018-09-14T04:36:50.018Z,16.40
2018-09-14T04:39:18.539Z,16.40
2018-09-14T04:41:47.182Z,16.40
2018-09-14T04:49:18.518Z,16.50
2018-09-14T04:51:47.882Z,16.40
2018-09-14T04:59:10.079Z,16.50
2018-09-14T05:01:38.582Z,16.50
2018-09-14T05:04:07.933Z,16.50
2018-09-14T05:06:37.800Z,16.40
2018-09-14T05:09:08.099Z,16.40
2018-09-14T05:11:36.674Z,16.40
2018-09-14T05:14:05.215Z,16.40
2018-09-14T05:16:34.128Z,16.50
2018-09-14T05:19:02.646Z,16.50
2018-09-14T05:21:31.202Z,16.50
2018-09-14T05:24:00.168Z,16.60
2018-09-14T05:26:30.005Z,16.50
2018-09-14T05:28:58.858Z,16.60
2018-09-14T05:31:27.429Z,16.50
2018-09-14T05:33:55.917Z,16.50
2018-09-14T05:36:24.431Z,16.50
2018-09-14T05:38:52.930Z,16.60
2018-09-14T05:41:21.422Z,16.60
2018-09-14T05:43:49.957Z,16.50
2018-09-14T05:46:18.454Z,16.50
2018-09-14T05:48:47.080Z,16.50
2018-09-14T05:56:13.674Z,16.50
2018-09-14T05:58:42.129Z,16.60
2018-09-14T06:01:10.630Z,16.70
2018-09-14T06:03:39.142Z,16.60
2018-09-14T06:06:07.887Z,16.70
2018-09-14T06:08:37.369Z,16.70
2018-09-14T06:11:08.395Z,16.70
2018-09-14T06:13:36.930Z,16.80
2018-09-14T06:16:05.527Z,16.70
2018-09-14T06:18:34.538Z,16.70
2018-09-14T06:21:03.070Z,16.60
2018-09-14T06:23:32.149Z,16.60
2018-09-14T06:26:00.669Z,16.60
2018-09-14T06:28:29.250Z,16.70
2018-09-14T06:30:57.775Z,16.70
2018-09-14T06:33:26.335Z,16.80
2018-09-14T06:35:55.732Z,16.80
2018-09-14T06:38:24.211Z,16.90
2018-09-14T06:40:53.352Z,16.90
2018-09-14T06:43:21.852Z,17.00
2018-09-14T06:45:50.416Z,16.90
2018-09-14T06:48:18.949Z,16.80
2018-09-14T06:50:47.478Z,16.90
2018-09-14T06:53:17.483Z,16.70
2018-09-14T06:55:46.042Z,16.80
2018-09-14T07:03:14.303Z,16.90
2018-09-14T07:05:42.817Z,16.80
2018-09-14T07:08:11.303Z,16.90
2018-09-14T07:10:40.598Z,16.90
2018-09-14T07:13:09.274Z,16.80
2018-09-14T07:15:37.735Z,16.80
2018-09-14T07:18:06.271Z,16.80
2018-09-14T07:20:35.471Z,16.80
2018-09-14T07:23:04.203Z,16.80
2018-09-14T07:25:33.294Z,16.90
2018-09-14T07:28:01.801Z,16.90
2018-09-14T07:30:30.306Z,16.80
2018-09-14T07:32:58.882Z,16.70
2018-09-14T07:35:27.386Z,16.70
2018-09-14T07:37:55.845Z,16.80
2018-09-14T07:40:24.361Z,16.80
2018-09-14T07:42:52.847Z,16.90
2018-09-14T07:45:21.338Z,17.00
2018-09-14T07:47:50.331Z,16.90
2018-09-14T07:50:18.922Z,16.90
2018-09-14T07:52:48.402Z,16.80
2018-09-14T07:55:19.375Z,16.90
2018-09-14T07:57:47.890Z,16.80
2018-09-14T08:00:17.454Z,16.90
2018-09-14T08:02:46.060Z,17.00
2018-09-14T08:10:13.351Z,16.90
2018-09-14T08:12:42.406Z,17.00
2018-09-14T08:15:10.901Z,17.00
2018-09-14T08:17:39.837Z,17.10
2018-09-14T08:20:09.534Z,17.20
2018-09-14T08:22:37.965Z,17.30
2018-09-14T08:25:06.486Z,17.50
2018-09-14T08:27:35.040Z,17.60
2018-09-14T08:30:03.654Z,17.50
2018-09-14T08:32:32.222Z,17.60
2018-09-14T08:35:01.528Z,17.50
2018-09-14T08:37:31.923Z,17.60
2018-09-14T08:40:00.416Z,17.70
2018-09-14T08:42:28.893Z,17.50
2018-09-14T08:44:57.453Z,17.50
2018-09-14T08:47:26.098Z,17.50
2018-09-14T08:49:55.586Z,17.50
2018-09-14T08:52:24.048Z,17.80
2018-09-14T08:54:53.404Z,18.10
2018-09-14T08:57:26.880Z,18.30
2018-09-14T08:59:55.377Z,18.50
2018-09-14T09:02:23.926Z,18.70
2018-09-14T09:04:52.587Z,19.00
2018-09-14T09:07:21.474Z,19.10
2018-09-14T09:09:50.309Z,19.40
2018-09-14T09:12:19.213Z,19.60
2018-09-14T09:14:48.851Z,19.50
2018-09-14T09:17:17.514Z,19.50
2018-09-14T09:19:46.006Z,19.90
2018-09-14T09:27:08.014Z,20.80
2018-09-14T09:29:36.699Z,21.40
2018-09-14T09:32:06.563Z,21.60
2018-09-14T09:34:37.301Z,21.90
2018-09-14T09:37:07.365Z,21.90
2018-09-14T09:39:35.875Z,22.00
2018-09-14T09:42:04.400Z,21.90
2018-09-14T09:44:32.941Z,22.10
2018-09-14T09:47:03.182Z,22.30
2018-09-14T09:49:31.734Z,22.70
2018-09-14T09:52:01.037Z,23.00
2018-09-14T09:54:29.838Z,23.20
2018-09-14T09:56:58.572Z,23.80
2018-09-14T09:59:27.667Z,24.10
2018-09-14T10:02:01.497Z,24.10
2018-09-14T10:04:33.478Z,24.30
2018-09-14T10:07:02.064Z,24.30
2018-09-14T10:09:31.156Z,25.20
2018-09-14T10:12:00.247Z,25.50
2018-09-14T10:14:29.425Z,26.30
2018-09-14T10:16:59.358Z,26.90
2018-09-14T10:19:28.500Z,27.30
2018-09-14T10:21:58.311Z,26.50
2018-09-14T10:24:27.728Z,26.40
2018-09-14T10:26:57.003Z,26.00
2018-09-14T10:29:26.069Z,26.00
2018-09-14T10:31:55.376Z,25.90
2018-09-14T10:34:24.237Z,25.50
2018-09-14T10:36:54.330Z,25.30
2018-09-14T10:39:24.148Z,24.70
2018-09-14T10:41:53.158Z,24.00
2018-09-14T10:44:21.710Z,23.60
2018-09-14T10:46:51.014Z,23.20
2018-09-14T10:49:19.493Z,23.30
2018-09-14T10:51:48.097Z,23.40
2018-09-14T10:54:17.408Z,23.50
2018-09-14T10:56:45.913Z,23.70
2018-09-14T11:04:08.725Z,23.90
2018-09-14T11:06:37.397Z,24.30
2018-09-14T11:09:09.022Z,24.70
2018-09-14T11:11:37.598Z,25.00
2018-09-14T11:14:06.188Z,25.20
2018-09-14T11:16:35.450Z,25.20
2018-09-14T11:19:05.037Z,25.00
2018-09-14T11:21:33.667Z,24.90
2018-09-14T11:24:02.577Z,24.70
2018-09-14T11:26:33.105Z,24.80
2018-09-14T11:29:01.623Z,25.00
2018-09-14T11:31:31.516Z,25.00
2018-09-14T11:34:00.027Z,25.00
2018-09-14T11:36:28.699Z,25.20
2018-09-14T11:38:57.202Z,25.20
2018-09-14T11:41:25.697Z,25.10
2018-09-14T11:43:54.224Z,24.90
2018-09-14T11:46:23.643Z,24.50
2018-09-14T11:48:52.270Z,24.10
2018-09-14T11:51:20.759Z,24.00
2018-09-14T11:53:49.269Z,23.80
2018-09-14T11:56:17.825Z,23.70
2018-09-14T11:58:47.837Z,23.60
2018-09-14T12:06:09.367Z,23.60
2018-09-14T12:08:37.938Z,23.70
2018-09-14T12:11:06.439Z,23.50
2018-09-14T12:13:36.231Z,23.20
2018-09-14T12:16:04.702Z,23.20
2018-09-14T12:18:33.218Z,23.20
2018-09-14T12:21:02.833Z,23.30
2018-09-14T12:23:31.341Z,23.20
2018-09-14T12:26:01.133Z,23.30
2018-09-14T12:28:29.743Z,23.50
2018-09-14T12:30:58.303Z,23.40
2018-09-14T12:33:26.827Z,23.30
2018-09-14T12:35:55.337Z,23.40
2018-09-14T12:38:23.826Z,23.60
2018-09-14T12:40:52.382Z,23.60
2018-09-14T12:43:20.883Z,23.50
2018-09-14T12:45:49.871Z,23.60
2018-09-14T12:48:18.374Z,23.40
2018-09-14T12:50:47.212Z,23.30
2018-09-14T12:53:17.414Z,23.10
2018-09-14T12:55:45.870Z,23.00
2018-09-14T13:03:12.406Z,23.00
2018-09-14T13:05:43.778Z,23.00
2018-09-14T13:08:12.293Z,23.20
2018-09-14T13:10:41.243Z,23.30
2018-09-14T13:13:09.754Z,23.50
2018-09-14T13:15:38.332Z,23.70
2018-09-14T13:18:06.979Z,23.80
2018-09-14T13:20:36.041Z,24.00
2018-09-14T13:23:05.162Z,24.20
2018-09-14T13:25:34.552Z,24.10
2018-09-14T13:28:03.138Z,24.20
2018-09-14T13:30:31.684Z,24.30
2018-09-14T13:33:00.498Z,24.40
2018-09-14T13:35:28.979Z,24.30
2018-09-14T13:37:57.461Z,24.00
2018-09-14T13:40:26.055Z,24.00
2018-09-14T13:42:54.644Z,24.00
2018-09-14T13:45:23.141Z,24.00
2018-09-14T13:47:51.630Z,24.10
2018-09-14T13:50:20.126Z,24.30
2018-09-14T13:52:48.741Z,24.40
2018-09-14T13:55:17.441Z,24.30
2018-09-14T13:57:45.902Z,24.20
2018-09-14T14:05:11.091Z,24.30
2018-09-14T14:07:39.578Z,24.00
2018-09-14T14:10:08.126Z,23.80
2018-09-14T14:12:36.708Z,23.50
2018-09-14T14:15:05.395Z,23.50
2018-09-14T14:17:33.975Z,23.50
2018-09-14T14:20:02.461Z,23.50
2018-09-14T14:22:30.958Z,23.50
2018-09-14T14:24:59.919Z,23.20
2018-09-14T14:27:28.510Z,23.10
2018-09-14T14:29:57.929Z,23.00
2018-09-14T14:32:26.453Z,23.20
2018-09-14T14:34:55.681Z,23.20
2018-09-14T14:37:24.610Z,23.30
2018-09-14T14:39:53.158Z,23.40
2018-09-14T14:42:21.885Z,23.40
2018-09-14T14:44:50.436Z,23.40
2018-09-14T14:47:19.085Z,23.50
2018-09-14T14:49:47.714Z,23.50
2018-09-14T14:52:17.417Z,23.50
2018-09-14T14:54:45.978Z,23.40
2018-09-14T15:02:12.579Z,23.50
2018-09-14T15:04:41.079Z,23.50
2018-09-14T15:07:09.668Z,23.50
2018-09-14T15:09:38.304Z,23.40
2018-09-14T15:12:07.873Z,23.20
2018-09-14T15:14:37.265Z,23.10
2018-09-14T15:17:06.244Z,23.00
2018-09-14T15:19:36.360Z,22.90
2018-09-14T15:22:04.857Z,22.80
2018-09-14T15:24:34.301Z,22.90
2018-09-14T15:27:03.369Z,22.80
2018-09-14T15:29:31.865Z,22.70
2018-09-14T15:32:00.390Z,22.70
2018-09-14T15:34:28.890Z,22.60
2018-09-14T15:36:57.389Z,22.50
2018-09-14T15:39:25.927Z,22.50
2018-09-14T15:41:54.404Z,22.50
2018-09-14T15:44:22.882Z,22.40
2018-09-14T15:46:51.434Z,22.50
2018-09-14T15:49:19.952Z,22.50
2018-09-14T15:51:48.424Z,22.70
2018-09-14T15:54:17.384Z,22.80
2018-09-14T15:56:46.572Z,22.80
2018-09-14T16:04:14.446Z,22.90
2018-09-14T16:06:43.022Z,22.80
2018-09-14T16:09:12.221Z,22.80
2018-09-14T16:11:40.742Z,22.70
2018-09-14T16:14:10.695Z,22.40
2018-09-14T16:16:39.314Z,22.40
2018-09-14T16:19:07.828Z,22.40
2018-09-14T16:21:36.341Z,22.30
2018-09-14T16:24:04.843Z,22.30
2018-09-14T16:26:34.061Z,22.30
2018-09-14T16:29:02.965Z,22.40
2018-09-14T16:31:32.110Z,22.20
2018-09-14T16:34:00.601Z,22.20
2018-09-14T16:36:29.138Z,22.10
2018-09-14T16:38:57.609Z,22.10
2018-09-14T16:41:26.138Z,22.00
2018-09-14T16:43:54.646Z,21.90
2018-09-14T16:46:23.315Z,21.80
2018-09-14T16:48:52.196Z,21.80
2018-09-14T16:51:21.355Z,21.60
2018-09-14T16:53:52.634Z,21.60
2018-09-14T16:56:22.759Z,21.60
2018-09-14T16:58:51.342Z,21.50
2018-09-14T17:01:19.821Z,21.40
2018-09-14T17:03:48.334Z,21.30
2018-09-14T17:06:19.105Z,21.20
2018-09-14T17:08:47.610Z,21.10
2018-09-14T17:11:17.518Z,21.00
2018-09-14T17:13:46.345Z,20.80
2018-09-14T17:21:10.082Z,20.60
2018-09-14T17:23:38.790Z,20.40
2018-09-14T17:26:07.457Z,20.20
2018-09-14T17:28:36.294Z,20.20
2018-09-14T17:31:06.272Z,20.10
2018-09-14T17:33:34.870Z,20.00
2018-09-14T17:36:03.758Z,20.00
2018-09-14T17:38:32.266Z,19.90
2018-09-14T17:41:00.763Z,19.90
2018-09-14T17:43:29.843Z,19.90
2018-09-14T17:45:58.325Z,19.80
2018-09-14T17:48:26.801Z,19.80
2018-09-14T17:50:55.829Z,19.70
2018-09-14T17:53:24.338Z,19.70
2018-09-14T17:55:53.485Z,19.60
2018-09-14T17:58:22.183Z,19.50
2018-09-14T18:00:50.809Z,19.50
2018-09-14T18:03:19.400Z,19.40
2018-09-14T18:05:48.194Z,19.40
2018-09-14T18:08:17.416Z,19.40
2018-09-14T18:10:45.925Z,19.30
2018-09-14T18:18:12.235Z,19.10
2018-09-14T18:20:40.761Z,19.10
2018-09-14T18:23:10.256Z,18.90
2018-09-14T18:25:38.872Z,18.80
2018-09-14T18:28:07.355Z,18.70
2018-09-14T18:30:36.285Z,18.60
2018-09-14T18:33:05.577Z,18.50
2018-09-14T18:35:34.113Z,18.50
2018-09-14T18:38:02.964Z,18.40
2018-09-14T18:40:31.940Z,18.40
2018-09-14T18:43:00.414Z,18.40
2018-09-14T18:45:29.292Z,18.40
2018-09-14T18:47:57.962Z,18.50
2018-09-14T18:50:26.426Z,18.50
2018-09-14T18:52:54.913Z,18.50
2018-09-14T18:55:23.622Z,18.50
2018-09-14T18:57:52.129Z,18.50
2018-09-14T19:00:21.263Z,18.60
2018-09-14T19:02:49.813Z,18.60
2018-09-14T19:05:18.313Z,18.60
2018-09-14T19:07:46.998Z,18.60
2018-09-14T19:20:07.913Z,18.50
2018-09-14T19:22:36.707Z,18.30
2018-09-14T19:25:05.231Z,18.30
2018-09-14T19:27:33.729Z,18.20
2018-09-14T19:30:02.206Z,18.20
2018-09-14T19:32:30.978Z,18.10
2018-09-14T19:34:59.824Z,18.10
2018-09-14T19:37:28.298Z,18.10
2018-09-14T19:39:59.052Z,18.00
2018-09-14T19:42:27.630Z,18.00
2018-09-14T19:44:56.429Z,18.10
2018-09-14T19:47:24.930Z,18.10
2018-09-14T19:49:53.422Z,18.10
2018-09-14T19:52:21.925Z,18.20
2018-09-14T19:54:50.426Z,18.20
2018-09-14T19:57:18.941Z,18.20
2018-09-14T19:59:47.442Z,18.20
2018-09-14T20:02:17.505Z,18.20
2018-09-14T20:04:46.422Z,18.20
2018-09-14T20:12:08.182Z,18.10
2018-09-14T20:14:36.682Z,18.10
2018-09-14T20:17:05.170Z,18.10
2018-09-14T20:19:33.718Z,18.10
2018-09-14T20:22:02.254Z,18.00
2018-09-14T20:24:30.770Z,18.00
2018-09-14T20:27:00.605Z,18.00
2018-09-14T20:29:29.093Z,18.00
2018-09-14T20:31:57.590Z,17.90
2018-09-14T20:34:26.744Z,17.90
2018-09-14T20:36:55.969Z,17.90
2018-09-14T20:39:24.503Z,17.90
2018-09-14T20:41:53.079Z,17.80
2018-09-14T20:44:21.610Z,17.80
2018-09-14T20:46:50.111Z,17.80
2018-09-14T20:49:19.167Z,17.70
2018-09-14T20:51:47.860Z,17.70
2018-09-14T20:54:17.361Z,17.70
2018-09-14T20:56:45.870Z,17.60
2018-09-14T21:04:11.736Z,17.60
2018-09-14T21:06:40.215Z,17.50
2018-09-14T21:09:09.754Z,17.40
2018-09-14T21:11:38.730Z,17.40
2018-09-14T21:14:07.216Z,17.40
2018-09-14T21:16:35.690Z,17.30
2018-09-14T21:19:04.514Z,17.20
2018-09-14T21:21:33.005Z,17.20
2018-09-14T21:24:01.485Z,17.10
2018-09-14T21:26:30.049Z,17.20
2018-09-14T21:28:58.623Z,17.10
2018-09-14T21:31:27.817Z,17.10
2018-09-14T21:33:56.771Z,17.00
2018-09-14T21:36:25.257Z,17.10
2018-09-14T21:38:54.432Z,17.00
2018-09-14T21:41:22.924Z,17.00
2018-09-14T21:43:51.417Z,16.90
2018-09-14T21:46:19.905Z,16.90
2018-09-14T21:48:48.433Z,16.90
2018-09-14T21:51:17.374Z,16.80
2018-09-14T21:53:45.947Z,16.80
2018-09-14T22:01:15.008Z,16.70
2018-09-14T22:03:44.922Z,16.60
2018-09-14T22:06:13.418Z,16.50
2018-09-14T22:08:42.549Z,16.50
2018-09-14T22:11:11.125Z,16.50
2018-09-14T22:13:39.681Z,16.50
2018-09-14T22:16:08.269Z,16.40
2018-09-14T22:18:36.740Z,16.40
2018-09-14T22:21:05.526Z,16.30
2018-09-14T22:23:34.304Z,16.20
2018-09-14T22:26:04.060Z,16.20
2018-09-14T22:28:32.535Z,16.20
2018-09-14T22:31:01.053Z,16.20
2018-09-14T22:33:29.956Z,16.10
2018-09-14T22:35:58.517Z,16.10
2018-09-14T22:38:27.220Z,16.10
2018-09-14T22:40:56.778Z,16.00
2018-09-14T22:43:25.263Z,16.00
2018-09-14T22:45:53.829Z,16.00
2018-09-14T22:48:22.296Z,16.00
2018-09-14T22:50:51.182Z,16.00
2018-09-14T22:53:19.677Z,16.00
2018-09-14T22:55:48.230Z,15.90
2018-09-14T22:58:17.351Z,15.90
2018-09-14T23:00:54.007Z,15.90
2018-09-14T23:03:22.604Z,15.90
2018-09-14T23:05:51.182Z,15.80
2018-09-14T23:08:20.090Z,15.80
2018-09-14T23:10:48.817Z,15.80
2018-09-14T23:13:17.473Z,15.80
2018-09-14T23:15:51.150Z,15.80
2018-09-14T23:18:19.610Z,15.80
2018-09-14T23:20:48.081Z,15.70
2018-09-14T23:23:17.438Z,15.60
2018-09-14T23:25:45.897Z,15.60
2018-09-14T23:33:13.292Z,15.60
2018-09-14T23:35:42.045Z,15.60
2018-09-14T23:38:10.634Z,15.60
2018-09-14T23:40:39.178Z,15.70
2018-09-14T23:43:08.209Z,15.70
2018-09-14T23:45:36.702Z,15.70
2018-09-14T23:48:05.457Z,15.60
2018-09-14T23:50:33.982Z,15.70
2018-09-14T23:53:04.572Z,15.70
2018-09-14T23:55:33.202Z,15.70
2018-09-14T23:58:01.669Z,15.80
